createdAt,value
2018-06-30T00:02:23.802Z,97507.52
2018-06-30T00:04:53.334Z,97503.05
2018-06-30T00:07:23.436Z,97505.79
2018-06-30T00:09:52.071Z,97504.92
2018-06-30T00:12:20.760Z,97505.08
2018-06-30T00:14:49.416Z,97497.52
2018-06-30T00:17:18.378Z,97500.61
2018-06-30T00:19:47.022Z,97498.26
2018-06-30T00:22:15.782Z,97490.86
2018-06-30T00:24:44.945Z,97492.20
2018-06-30T00:27:18.856Z,97497.77
2018-06-30T00:29:47.922Z,97494.71
2018-06-30T00:32:16.573Z,97491.08
2018-06-30T00:34:45.843Z,97496.62
2018-06-30T00:37:15.496Z,97492.36
2018-06-30T00:39:44.186Z,97494.66
2018-06-30T00:42:12.923Z,97497.95
2018-06-30T00:44:42.162Z,97507.02
2018-06-30T00:47:10.855Z,97499.76
2018-06-30T00:49:39.972Z,97496.67
2018-06-30T00:52:08.984Z,97486.03
2018-06-30T00:54:38.314Z,97492.06
2018-06-30T00:57:06.999Z,97483.22
2018-06-30T00:59:35.757Z,97484.66
2018-06-30T01:02:05.318Z,97482.41
2018-06-30T01:04:34.093Z,97482.69
2018-06-30T01:07:03.014Z,97481.88
2018-06-30T01:09:31.724Z,97482.50
2018-06-30T01:12:00.701Z,97477.27
2018-06-30T01:14:29.806Z,97480.88
2018-06-30T01:16:58.621Z,97481.00
2018-06-30T01:19:27.248Z,97479.05
2018-06-30T01:21:56.680Z,97478.30
2018-06-30T01:24:26.130Z,97486.83
2018-06-30T01:26:55.386Z,97495.80
2018-06-30T01:29:23.999Z,97489.41
2018-06-30T01:31:52.685Z,97476.23
2018-06-30T01:34:21.307Z,97482.16
2018-06-30T01:36:50.009Z,97479.42
2018-06-30T01:39:19.566Z,97478.28
2018-06-30T01:41:49.163Z,97480.22
2018-06-30T01:44:18.093Z,97475.34
2018-06-30T01:46:46.966Z,97479.21
2018-06-30T01:49:15.587Z,97477.25
2018-06-30T01:51:44.244Z,97477.72
2018-06-30T01:54:13.711Z,97476.17
2018-06-30T01:56:42.356Z,97478.86
2018-06-30T01:59:11.280Z,97477.63
2018-06-30T02:01:40.263Z,97471.00
2018-06-30T02:04:08.979Z,97468.16
2018-06-30T02:06:38.356Z,97469.14
2018-06-30T02:09:09.232Z,97463.30
2018-06-30T02:11:37.923Z,97465.98
2018-06-30T02:14:06.860Z,97468.78
2018-06-30T02:16:35.567Z,97469.34
2018-06-30T02:19:04.579Z,97462.63
2018-06-30T02:21:33.838Z,97464.63
2018-06-30T02:24:03.155Z,97460.09
2018-06-30T02:26:31.845Z,97465.61
2018-06-30T02:29:00.633Z,97456.30
2018-06-30T02:31:29.399Z,97467.34
2018-06-30T02:33:58.103Z,97468.77
2018-06-30T02:36:26.916Z,97461.46
2018-06-30T02:38:56.171Z,97468.30
2018-06-30T02:41:25.010Z,97474.59
2018-06-30T02:43:53.709Z,97475.16
2018-06-30T02:46:24.250Z,97481.57
2018-06-30T02:48:52.857Z,97471.98
2018-06-30T02:51:21.622Z,97473.51
2018-06-30T02:53:50.919Z,97473.52
2018-06-30T02:56:20.071Z,97477.28
2018-06-30T02:58:48.645Z,97471.36
2018-06-30T03:01:22.666Z,97465.23
2018-06-30T03:03:51.395Z,97462.73
2018-06-30T03:06:20.419Z,97460.76
2018-06-30T03:08:49.202Z,97466.20
2018-06-30T03:11:17.851Z,97413.73
2018-06-30T03:13:47.344Z,97469.08
2018-06-30T03:16:17.529Z,97471.13
2018-06-30T03:18:47.715Z,97474.52
2018-06-30T03:21:16.372Z,97467.49
2018-06-30T03:23:45.094Z,97467.72
2018-06-30T03:26:14.123Z,97463.71
2018-06-30T03:28:43.685Z,97468.17
2018-06-30T03:31:12.310Z,97469.98
2018-06-30T03:33:40.974Z,97462.50
2018-06-30T03:36:09.713Z,97469.66
2018-06-30T03:38:38.767Z,97458.31
2018-06-30T03:41:07.415Z,97465.08
2018-06-30T03:43:36.597Z,97465.75
2018-06-30T03:46:05.586Z,97463.48
2018-06-30T03:48:35.374Z,97463.14
2018-06-30T03:51:04.031Z,97462.91
2018-06-30T03:53:32.826Z,97470.28
2018-06-30T03:56:01.589Z,97462.78
2018-06-30T03:58:31.392Z,97462.45
2018-06-30T04:01:00.066Z,97464.84
2018-06-30T04:03:28.763Z,97463.41
2018-06-30T04:05:57.721Z,97469.20
2018-06-30T04:08:26.461Z,97468.17
2018-06-30T04:10:55.439Z,97468.63
2018-06-30T04:13:24.048Z,97468.73
2018-06-30T04:15:53.439Z,97465.56
2018-06-30T04:18:22.070Z,97467.27
2018-06-30T04:20:50.831Z,97472.03
2018-06-30T04:23:19.575Z,97473.16
2018-06-30T04:25:48.238Z,97462.69
2018-06-30T04:28:16.941Z,97465.17
2018-06-30T04:30:45.649Z,97456.91
2018-06-30T04:33:14.278Z,97469.61
2018-06-30T04:35:44.352Z,97466.09
2018-06-30T04:38:12.958Z,97471.98
2018-06-30T04:40:41.947Z,97474.83
2018-06-30T04:43:10.650Z,97482.77
2018-06-30T04:45:39.314Z,97489.79
2018-06-30T04:48:08.607Z,97492.28
2018-06-30T04:50:37.492Z,97490.36
2018-06-30T04:53:06.245Z,97486.95
2018-06-30T04:55:35.030Z,97485.70
2018-06-30T04:58:03.815Z,97490.47
2018-06-30T05:00:32.464Z,97496.33
2018-06-30T05:03:01.610Z,97495.64
2018-06-30T05:05:30.461Z,97498.34
2018-06-30T05:07:59.100Z,97496.88
2018-06-30T05:10:28.337Z,97498.91
2018-06-30T05:12:57.281Z,97500.69
2018-06-30T05:15:26.977Z,97501.47
2018-06-30T05:17:55.705Z,97492.56
2018-06-30T05:20:25.252Z,97498.55
2018-06-30T05:22:54.099Z,97492.19
2018-06-30T05:25:22.923Z,97493.53
2018-06-30T05:27:51.562Z,97488.27
2018-06-30T05:30:20.380Z,97490.27
2018-06-30T05:32:49.440Z,97495.45
2018-06-30T05:35:18.392Z,97493.34
2018-06-30T05:37:47.216Z,97491.36
2018-06-30T05:40:16.338Z,97488.61
2018-06-30T05:42:46.295Z,97494.08
2018-06-30T05:45:15.170Z,97495.87
2018-06-30T05:47:44.436Z,97493.60
2018-06-30T05:50:13.145Z,97489.64
2018-06-30T05:52:42.273Z,97491.16
2018-06-30T05:55:10.985Z,97491.32
2018-06-30T05:57:39.840Z,97488.95
2018-06-30T06:00:08.737Z,97490.20
2018-06-30T06:02:37.589Z,97490.45
2018-06-30T06:05:07.086Z,97492.97
2018-06-30T06:07:35.880Z,97488.00
2018-06-30T06:10:05.154Z,97490.39
2018-06-30T06:12:33.814Z,97488.75
2018-06-30T06:15:02.544Z,97488.97
2018-06-30T06:17:32.342Z,97493.42
2018-06-30T06:20:01.049Z,97481.80
2018-06-30T06:22:29.701Z,97491.08
2018-06-30T06:24:58.467Z,97489.25
2018-06-30T06:27:27.522Z,97491.83
2018-06-30T06:29:56.231Z,97491.64
2018-06-30T06:32:24.950Z,97494.70
2018-06-30T06:34:53.814Z,97499.76
2018-06-30T06:37:22.499Z,97501.47
2018-06-30T06:39:51.546Z,97501.46
2018-06-30T06:42:20.527Z,97501.98
2018-06-30T06:44:49.209Z,97505.25
2018-06-30T06:47:17.859Z,97503.38
2018-06-30T06:49:47.151Z,97496.32
2018-06-30T06:52:15.949Z,97496.56
2018-06-30T06:54:46.327Z,97492.67
2018-06-30T06:57:15.760Z,97491.16
2018-06-30T06:59:44.469Z,97497.56
2018-06-30T07:02:13.138Z,97494.05
2018-06-30T07:04:41.868Z,97498.25
2018-06-30T07:07:11.151Z,97501.96
2018-06-30T07:09:39.826Z,97500.02
2018-06-30T07:12:10.342Z,97499.61
2018-06-30T07:14:39.416Z,97491.73
2018-06-30T07:17:08.346Z,97495.70
2018-06-30T07:19:37.558Z,97494.13
2018-06-30T07:22:06.341Z,97500.77
2018-06-30T07:24:35.693Z,97496.42
2018-06-30T07:27:04.536Z,97493.37
2018-06-30T07:29:33.299Z,97494.07
2018-06-30T07:32:02.144Z,97491.27
2018-06-30T07:34:31.677Z,97494.01
2018-06-30T07:37:00.650Z,97498.56
2018-06-30T07:39:29.370Z,97497.94
2018-06-30T07:41:58.108Z,97500.21
2018-06-30T07:44:27.885Z,97495.56
2018-06-30T07:46:56.542Z,97493.87
2018-06-30T07:49:25.260Z,97497.55
2018-06-30T07:51:54.628Z,97494.09
2018-06-30T07:54:23.257Z,97494.81
2018-06-30T07:56:51.915Z,97495.88
2018-06-30T07:59:20.564Z,97492.22
2018-06-30T08:01:49.298Z,97495.07
2018-06-30T08:04:18.103Z,97494.59
2018-06-30T08:06:46.823Z,97496.00
2018-06-30T08:09:16.181Z,97497.58
2018-06-30T08:11:44.852Z,97498.05
2018-06-30T08:14:13.602Z,97491.09
2018-06-30T08:16:42.489Z,97493.20
2018-06-30T08:19:11.170Z,97492.64
2018-06-30T08:21:39.905Z,97491.98
2018-06-30T08:24:09.164Z,97499.52
2018-06-30T08:26:37.994Z,97497.39
2018-06-30T08:29:06.732Z,97492.52
2018-06-30T08:31:35.413Z,97491.55
2018-06-30T08:34:04.099Z,97485.31
2018-06-30T08:36:33.005Z,97489.30
2018-06-30T08:39:01.806Z,97487.78
2018-06-30T08:41:30.750Z,97485.82
2018-06-30T08:43:59.589Z,97491.52
2018-06-30T08:46:28.388Z,97488.21
2018-06-30T08:48:58.282Z,97488.81
2018-06-30T08:51:26.967Z,97491.57
2018-06-30T08:53:55.890Z,97487.47
2018-06-30T08:56:24.638Z,97484.71
2018-06-30T08:58:53.565Z,97485.15
2018-06-30T09:01:22.294Z,97484.34
2018-06-30T09:03:51.048Z,97485.34
2018-06-30T09:06:19.822Z,97480.61
2018-06-30T09:08:48.562Z,97482.95
2018-06-30T09:11:17.288Z,97481.01
2018-06-30T09:13:46.712Z,97483.15
2018-06-30T09:16:16.200Z,97479.61
2018-06-30T09:18:44.878Z,97477.64
2018-06-30T09:21:13.635Z,97477.81
2018-06-30T09:23:42.839Z,97487.09
2018-06-30T09:26:11.712Z,97478.78
2018-06-30T09:28:41.136Z,97483.30
2018-06-30T09:31:10.645Z,97477.74
2018-06-30T09:33:40.098Z,97480.05
2018-06-30T09:36:09.572Z,97483.73
2018-06-30T09:38:38.773Z,97479.20
2018-06-30T09:41:08.882Z,97483.14
2018-06-30T09:43:38.394Z,97476.20
2018-06-30T09:46:07.574Z,97473.59
2018-06-30T09:48:36.424Z,97472.39
2018-06-30T09:51:06.189Z,97476.69
2018-06-30T09:53:34.894Z,97475.30
2018-06-30T09:56:04.356Z,97477.43
2018-06-30T09:58:33.748Z,97474.59
2018-06-30T10:01:07.445Z,97475.17
2018-06-30T10:03:37.219Z,97473.69
2018-06-30T10:06:07.164Z,97476.59
2018-06-30T10:08:35.860Z,97475.77
2018-06-30T10:11:04.631Z,97474.63
2018-06-30T10:13:33.951Z,97472.83
2018-06-30T10:16:02.781Z,97472.66
2018-06-30T10:18:32.150Z,97472.98
2018-06-30T10:21:01.690Z,97473.13
2018-06-30T10:23:30.324Z,97470.70
2018-06-30T10:25:59.743Z,97469.02
2018-06-30T10:28:29.166Z,97468.68
2018-06-30T10:30:58.046Z,97464.69
2018-06-30T10:33:27.225Z,97456.70
2018-06-30T10:35:56.968Z,97460.98
2018-06-30T10:38:25.655Z,97454.73
2018-06-30T10:40:54.436Z,97450.92
2018-06-30T10:43:23.560Z,97451.81
2018-06-30T10:45:52.247Z,97447.44
2018-06-30T10:48:21.032Z,97447.06
2018-06-30T10:50:49.684Z,97448.22
2018-06-30T10:53:19.942Z,97439.58
2018-06-30T10:55:48.647Z,97441.77
2018-06-30T10:58:17.450Z,97437.27
2018-06-30T11:00:46.103Z,97429.48
2018-06-30T11:03:15.013Z,97424.50
2018-06-30T11:05:50.009Z,97431.66
2018-06-30T11:08:18.767Z,97430.19
2018-06-30T11:10:47.469Z,97435.16
2018-06-30T11:13:16.159Z,97427.86
2018-06-30T11:15:45.317Z,97431.34
2018-06-30T11:18:14.730Z,97426.30
2018-06-30T11:20:44.423Z,97427.22
2018-06-30T11:23:15.378Z,97424.24
2018-06-30T11:25:45.299Z,97425.30
2018-06-30T11:28:16.191Z,97423.29
2018-06-30T11:30:45.978Z,97424.73
2018-06-30T11:33:17.048Z,97424.31
2018-06-30T11:35:47.275Z,97422.59
2018-06-30T11:38:17.716Z,97415.48
2018-06-30T11:40:46.584Z,97416.16
2018-06-30T11:43:15.336Z,97410.73
2018-06-30T11:45:44.260Z,97410.57
2018-06-30T11:48:13.010Z,97409.48
2018-06-30T11:50:44.167Z,97403.72
2018-06-30T11:53:16.042Z,97407.07
2018-06-30T11:55:51.390Z,97403.59
2018-06-30T11:58:20.144Z,97404.90
2018-06-30T12:00:48.977Z,97410.36
2018-06-30T12:03:17.853Z,97406.44
2018-06-30T12:05:48.453Z,97396.98
2018-06-30T12:08:18.787Z,97394.96
2018-06-30T12:10:48.955Z,97400.23
2018-06-30T12:13:20.903Z,97398.67
2018-06-30T12:15:49.867Z,97397.67
2018-06-30T12:18:22.575Z,97395.91
2018-06-30T12:20:51.359Z,97395.39
2018-06-30T12:23:20.160Z,97389.27
2018-06-30T12:25:49.387Z,97389.80
2018-06-30T12:28:18.575Z,97391.63
2018-06-30T12:30:48.019Z,97386.67
2018-06-30T12:33:19.720Z,97387.21
2018-06-30T12:35:48.445Z,97384.40
2018-06-30T12:38:19.257Z,97387.23
2018-06-30T12:40:49.203Z,97383.42
2018-06-30T12:43:18.348Z,97385.09
2018-06-30T12:45:47.838Z,97384.23
2018-06-30T12:48:17.003Z,97378.16
2018-06-30T12:50:47.002Z,97386.84
2018-06-30T12:53:15.741Z,97381.28
2018-06-30T12:55:48.214Z,97387.91
2018-06-30T12:58:20.092Z,97375.97
2018-06-30T13:00:49.242Z,97371.45
2018-06-30T13:03:17.914Z,97377.69
2018-06-30T13:05:46.608Z,97372.64
2018-06-30T13:08:16.653Z,97376.70
2018-06-30T13:10:46.919Z,97365.89
2018-06-30T13:13:15.612Z,97373.66
2018-06-30T13:15:44.269Z,97376.30
2018-06-30T13:18:13.105Z,97367.00
2018-06-30T13:20:41.831Z,97363.34
2018-06-30T13:23:10.467Z,97360.28
2018-06-30T13:25:39.142Z,97362.95
2018-06-30T13:28:07.949Z,97356.69
2018-06-30T13:30:36.821Z,97361.21
2018-06-30T13:33:05.535Z,97350.36
2018-06-30T13:35:34.188Z,97360.12
2018-06-30T13:38:02.988Z,97353.45
2018-06-30T13:40:31.618Z,97343.34
2018-06-30T13:43:00.314Z,97343.39
2018-06-30T13:45:29.153Z,97343.17
2018-06-30T13:47:57.857Z,97342.38
2018-06-30T13:50:27.540Z,97342.15
2018-06-30T13:52:56.625Z,97342.57
2018-06-30T13:55:26.645Z,97341.71
2018-06-30T13:57:55.935Z,97336.42
2018-06-30T14:00:26.147Z,97342.13
2018-06-30T14:02:55.434Z,97345.41
2018-06-30T14:05:24.767Z,97335.14
2018-06-30T14:07:54.212Z,97329.86
2018-06-30T14:10:23.601Z,97327.45
2018-06-30T14:12:53.136Z,97327.98
2018-06-30T14:15:21.870Z,97325.13
2018-06-30T14:17:50.521Z,97329.52
2018-06-30T14:20:19.211Z,97329.92
2018-06-30T14:22:47.921Z,97336.58
2018-06-30T14:25:17.090Z,97326.58
2018-06-30T14:27:46.342Z,97320.97
2018-06-30T14:30:15.780Z,97327.30
2018-06-30T14:32:45.009Z,97333.23
2018-06-30T14:35:14.193Z,97327.09
2018-06-30T14:37:44.404Z,97328.73
2018-06-30T14:40:18.060Z,97324.68
2018-06-30T14:42:47.215Z,97320.95
2018-06-30T14:45:16.618Z,97314.50
2018-06-30T14:47:46.507Z,97321.62
2018-06-30T14:50:15.852Z,97322.89
2018-06-30T14:52:45.109Z,97322.34
2018-06-30T14:55:14.937Z,97320.79
2018-06-30T14:57:45.404Z,97324.84
2018-06-30T15:00:15.132Z,97321.73
2018-06-30T15:02:43.887Z,97321.33
2018-06-30T15:05:12.747Z,97324.63
2018-06-30T15:07:41.369Z,97316.06
2018-06-30T15:10:10.777Z,97322.14
2018-06-30T15:12:39.436Z,97320.94
2018-06-30T15:15:09.041Z,97317.48
2018-06-30T15:17:37.897Z,97324.17
2018-06-30T15:20:06.822Z,97323.95
2018-06-30T15:22:35.782Z,97322.89
2018-06-30T15:25:05.499Z,97327.67
2018-06-30T15:27:35.135Z,97321.73
2018-06-30T15:30:05.590Z,97325.12
2018-06-30T15:32:34.886Z,97321.77
2018-06-30T15:35:03.727Z,97320.98
2018-06-30T15:37:33.008Z,97320.49
2018-06-30T15:40:02.360Z,97316.52
2018-06-30T15:42:31.767Z,97313.69
2018-06-30T15:45:03.701Z,97317.73
2018-06-30T15:47:33.117Z,97314.29
2018-06-30T15:50:02.606Z,97317.56
2018-06-30T15:52:32.691Z,97318.12
2018-06-30T15:55:01.992Z,97317.06
2018-06-30T15:57:30.847Z,97321.47
2018-06-30T15:59:59.588Z,97319.67
2018-06-30T16:02:28.241Z,97315.39
2018-06-30T16:04:57.243Z,97319.65
2018-06-30T16:07:26.392Z,97330.44
2018-06-30T16:09:55.161Z,97327.71
2018-06-30T16:12:23.791Z,97325.33
2018-06-30T16:14:52.478Z,97328.03
2018-06-30T16:17:24.676Z,97317.45
2018-06-30T16:19:53.351Z,97317.72
2018-06-30T16:22:22.032Z,97323.19
2018-06-30T16:24:50.775Z,97320.16
2018-06-30T16:27:19.409Z,97313.90
2018-06-30T16:29:48.303Z,97318.34
2018-06-30T16:32:17.145Z,97325.27
2018-06-30T16:34:46.422Z,97312.84
2018-06-30T16:37:16.445Z,97327.20
2018-06-30T16:39:45.858Z,97322.17
2018-06-30T16:42:14.693Z,97317.59
2018-06-30T16:44:43.979Z,97325.30
2018-06-30T16:47:12.833Z,97324.78
2018-06-30T16:49:43.014Z,97328.30
2018-06-30T16:52:12.112Z,97329.08
2018-06-30T16:54:41.115Z,97329.16
2018-06-30T16:57:11.976Z,97324.49
2018-06-30T16:59:41.232Z,97322.56
2018-06-30T17:02:10.863Z,97327.38
2018-06-30T17:04:40.302Z,97327.66
2018-06-30T17:07:09.154Z,97325.73
2018-06-30T17:09:38.033Z,97321.65
2018-06-30T17:12:09.795Z,97330.69
2018-06-30T17:14:38.764Z,97327.28
2018-06-30T17:17:08.054Z,97336.07
2018-06-30T17:19:36.791Z,97330.16
2018-06-30T17:22:06.153Z,97326.61
2018-06-30T17:24:34.849Z,97329.58
2018-06-30T17:27:03.569Z,97326.92
2018-06-30T17:29:32.327Z,97331.79
2018-06-30T17:32:01.704Z,97328.63
2018-06-30T17:34:30.525Z,97331.95
2018-06-30T17:36:59.564Z,97333.67
2018-06-30T17:39:28.220Z,97336.70
2018-06-30T17:41:56.866Z,97330.11
2018-06-30T17:44:25.700Z,97331.95
2018-06-30T17:46:54.513Z,97333.33
2018-06-30T17:49:23.413Z,97327.62
2018-06-30T17:51:52.184Z,97333.63
2018-06-30T17:54:20.977Z,97332.91
2018-06-30T17:56:51.358Z,97334.89
2018-06-30T17:59:20.107Z,97344.98
2018-06-30T18:01:48.837Z,97340.56
2018-06-30T18:04:17.649Z,97342.59
2018-06-30T18:06:46.355Z,97344.52
2018-06-30T18:09:15.304Z,97343.02
2018-06-30T18:11:43.997Z,97344.00
2018-06-30T18:14:12.854Z,97346.72
2018-06-30T18:16:42.280Z,97345.88
2018-06-30T18:19:11.011Z,97346.72
2018-06-30T18:21:39.771Z,97350.31
2018-06-30T18:24:09.482Z,97351.95
2018-06-30T18:26:38.286Z,97354.84
2018-06-30T18:29:07.611Z,97355.42
2018-06-30T18:31:37.141Z,97352.94
2018-06-30T18:34:05.947Z,97360.09
2018-06-30T18:36:35.159Z,97354.52
2018-06-30T18:39:04.632Z,97362.88
2018-06-30T18:41:34.076Z,97366.28
2018-06-30T18:44:02.787Z,97365.48
2018-06-30T18:46:31.450Z,97367.95
2018-06-30T18:49:00.171Z,97370.27
2018-06-30T18:51:29.772Z,97375.45
2018-06-30T18:53:59.057Z,97373.47
2018-06-30T18:56:28.829Z,97370.77
2018-06-30T18:58:58.149Z,97372.69
2018-06-30T19:01:26.863Z,97373.72
2018-06-30T19:03:57.497Z,97375.11
2018-06-30T19:06:26.156Z,97375.73
2018-06-30T19:08:54.917Z,97376.94
2018-06-30T19:11:23.609Z,97382.53
2018-06-30T19:13:52.369Z,97382.53
2018-06-30T19:16:21.117Z,97382.14
2018-06-30T19:18:50.390Z,97385.44
2018-06-30T19:21:19.118Z,97385.70
2018-06-30T19:23:47.901Z,97389.25
2018-06-30T19:26:18.604Z,97390.12
2018-06-30T19:28:47.377Z,97395.26
2018-06-30T19:31:16.716Z,97404.51
2018-06-30T19:33:45.647Z,97396.25
2018-06-30T19:36:14.924Z,97404.14
2018-06-30T19:38:44.429Z,97408.91
2018-06-30T19:41:13.239Z,97409.73
2018-06-30T19:43:42.555Z,97412.50
2018-06-30T19:46:12.476Z,97418.25
2018-06-30T19:48:41.193Z,97419.08
2018-06-30T19:51:10.013Z,97422.22
2018-06-30T19:53:38.772Z,97419.67
2018-06-30T19:56:07.615Z,97424.39
2018-06-30T19:58:36.663Z,97428.36
2018-06-30T20:01:05.668Z,97426.81
2018-06-30T20:03:34.613Z,97430.75
2018-06-30T20:06:04.336Z,97435.52
2018-06-30T20:08:33.319Z,97441.20
2018-06-30T20:11:02.813Z,97442.22
2018-06-30T20:13:31.965Z,97444.81
2018-06-30T20:16:01.772Z,97446.19
2018-06-30T20:18:30.852Z,97450.31
2018-06-30T20:20:59.835Z,97442.84
2018-06-30T20:23:29.112Z,97443.84
2018-06-30T20:25:57.839Z,97442.66
2018-06-30T20:28:26.979Z,97451.33
2018-06-30T20:30:55.805Z,97447.75
2018-06-30T20:33:24.639Z,97456.39
2018-06-30T20:35:53.397Z,97460.91
2018-06-30T20:38:22.400Z,97467.19
2018-06-30T20:40:51.120Z,97469.56
2018-06-30T20:43:19.899Z,97477.02
2018-06-30T20:45:49.219Z,97472.30
2018-06-30T20:48:18.193Z,97470.91
2018-06-30T20:50:46.983Z,97474.44
2018-06-30T20:53:15.892Z,97484.06
2018-06-30T20:55:44.636Z,97480.50
2018-06-30T20:58:13.423Z,97487.84
2018-06-30T21:00:42.108Z,97497.60
2018-06-30T21:03:13.155Z,97497.70
2018-06-30T21:05:42.050Z,97497.10
2018-06-30T21:08:11.250Z,97498.98
2018-06-30T21:10:40.373Z,97498.52
2018-06-30T21:13:10.702Z,97497.90
2018-06-30T21:15:39.800Z,97503.30
2018-06-30T21:18:09.741Z,97504.85
2018-06-30T21:20:38.694Z,97503.68
2018-06-30T21:23:07.558Z,97511.34
2018-06-30T21:25:36.324Z,97506.16
2018-06-30T21:28:05.416Z,97505.57
2018-06-30T21:30:34.328Z,97499.22
2018-06-30T21:33:03.035Z,97511.55
2018-06-30T21:35:32.353Z,97507.21
2018-06-30T21:38:01.048Z,97508.06
2018-06-30T21:40:30.091Z,97508.05
2018-06-30T21:42:58.943Z,97511.96
2018-06-30T21:45:28.303Z,97514.72
2018-06-30T21:47:57.073Z,97512.17
2018-06-30T21:50:25.941Z,97514.75
2018-06-30T21:52:54.635Z,97519.48
2018-06-30T21:55:23.408Z,97517.95
2018-06-30T21:57:52.127Z,97528.22
2018-06-30T22:00:39.655Z,97521.89
2018-06-30T22:03:08.451Z,97522.61
2018-06-30T22:05:37.499Z,97527.69
2018-06-30T22:08:06.361Z,97523.98
2018-06-30T22:10:35.024Z,97527.11
2018-06-30T22:13:04.472Z,97527.89
2018-06-30T22:15:33.898Z,97522.95
2018-06-30T22:18:02.896Z,97529.05
2018-06-30T22:20:32.183Z,97522.36
2018-06-30T22:23:01.760Z,97522.95
2018-06-30T22:25:30.805Z,97525.13
2018-06-30T22:27:59.700Z,97527.99
2018-06-30T22:30:28.468Z,97527.00
2018-06-30T22:32:57.333Z,97530.48
2018-06-30T22:35:26.691Z,97526.26
2018-06-30T22:37:56.107Z,97528.59
2018-06-30T22:40:24.837Z,97517.94
2018-06-30T22:42:53.756Z,97519.98
2018-06-30T22:45:22.491Z,97521.86
2018-06-30T22:47:51.218Z,97526.34
2018-06-30T22:50:20.055Z,97526.34
2018-06-30T22:52:48.756Z,97529.64
2018-06-30T22:55:18.522Z,97532.17
2018-06-30T22:57:51.345Z,97538.18
2018-06-30T23:00:20.703Z,97532.02
2018-06-30T23:02:49.452Z,97536.76
2018-06-30T23:05:18.206Z,97529.69
2018-06-30T23:07:47.896Z,97524.37
2018-06-30T23:10:16.958Z,97527.67
2018-06-30T23:12:45.714Z,97520.71
2018-06-30T23:15:14.432Z,97525.92
2018-06-30T23:17:43.084Z,97528.38
2018-06-30T23:20:11.712Z,97531.09
2018-06-30T23:22:51.374Z,97532.69
2018-06-30T23:25:20.057Z,97537.13
2018-06-30T23:27:48.795Z,97537.34
2018-06-30T23:30:17.672Z,97540.28
2018-06-30T23:32:46.320Z,97537.41
2018-06-30T23:35:14.903Z,97534.88
2018-06-30T23:37:43.599Z,97543.38
2018-06-30T23:40:12.236Z,97536.06
2018-06-30T23:42:41.006Z,97544.72
2018-06-30T23:45:09.888Z,97543.06
2018-06-30T23:47:38.617Z,97544.78
2018-06-30T23:50:07.363Z,97544.97
2018-06-30T23:52:37.415Z,97550.29
2018-06-30T23:55:07.056Z,97553.20
2018-06-30T23:57:35.633Z,97553.16
